createdAt,value
2022-11-08T00:04:23.078Z,15.57
2022-11-08T00:07:13.155Z,22.63
2022-11-08T00:10:10.371Z,24.17
2022-11-08T00:25:03.242Z,26.77
2022-11-08T00:27:59.972Z,23.23
2022-11-08T00:30:34.527Z,28.87
2022-11-08T00:33:10.539Z,24.00
2022-11-08T00:35:53.467Z,25.17
2022-11-08T00:38:23.739Z,25.90
2022-11-08T00:40:56.890Z,23.47
2022-11-08T00:43:26.661Z,29.30
2022-11-08T00:45:58.146Z,23.47
2022-11-08T00:48:27.275Z,25.27
2022-11-08T00:50:56.770Z,24.37
2022-11-08T00:53:25.039Z,28.27
2022-11-08T00:56:06.852Z,25.83
2022-11-08T00:58:36.323Z,24.97
2022-11-08T01:01:16.250Z,28.70
2022-11-08T01:03:47.980Z,25.50
2022-11-08T01:06:19.314Z,19.60
2022-11-08T01:08:48.020Z,27.07
2022-11-08T01:11:18.432Z,30.50
2022-11-08T01:13:45.764Z,25.73
2022-11-08T01:16:50.372Z,30.00
2022-11-08T01:19:43.871Z,22.10
2022-11-08T01:22:12.468Z,19.80
2022-11-08T01:24:40.291Z,17.70
2022-11-08T01:27:09.174Z,18.90
2022-11-08T01:29:36.914Z,18.50
2022-11-08T01:32:03.753Z,23.77
2022-11-08T01:34:33.445Z,18.90
2022-11-08T01:37:02.236Z,19.80
2022-11-08T01:39:33.591Z,19.60
2022-11-08T01:42:00.492Z,21.57
2022-11-08T01:44:28.833Z,18.40
2022-11-08T01:46:55.809Z,21.33
2022-11-08T01:49:31.159Z,19.57
2022-11-08T01:52:16.994Z,16.80
2022-11-08T01:55:31.161Z,18.87
2022-11-08T01:58:08.052Z,15.93
2022-11-08T02:00:37.545Z,19.80
2022-11-08T02:03:06.171Z,14.40
2022-11-08T02:05:34.432Z,18.00
2022-11-08T02:08:11.296Z,18.10
2022-11-08T02:10:41.181Z,18.73
2022-11-08T02:13:18.095Z,22.90
2022-11-08T02:15:45.725Z,14.87
2022-11-08T02:18:14.765Z,15.83
2022-11-08T02:20:50.401Z,17.90
2022-11-08T02:23:32.426Z,21.57
2022-11-08T02:25:59.856Z,15.57
2022-11-08T02:28:27.672Z,15.97
2022-11-08T02:30:54.918Z,13.83
2022-11-08T02:33:24.278Z,17.33
2022-11-08T02:35:58.164Z,21.63
2022-11-08T02:38:26.816Z,13.33
2022-11-08T02:40:56.734Z,15.77
2022-11-08T02:43:48.307Z,18.13
2022-11-08T02:46:15.061Z,9.33
2022-11-08T02:48:42.203Z,13.37
2022-11-08T02:51:09.926Z,15.00
2022-11-08T02:53:37.594Z,12.30
2022-11-08T02:56:06.307Z,13.37
2022-11-08T02:58:33.808Z,15.47
2022-11-08T03:01:01.386Z,19.07
2022-11-08T03:03:29.069Z,16.60
2022-11-08T03:06:00.181Z,23.13
2022-11-08T03:08:27.543Z,16.33
2022-11-08T03:10:54.529Z,18.13
2022-11-08T03:13:21.951Z,14.90
2022-11-08T03:15:48.841Z,13.73
2022-11-08T03:18:15.972Z,15.67
2022-11-08T03:20:43.945Z,18.13
2022-11-08T03:23:11.708Z,13.27
2022-11-08T03:25:38.593Z,14.83
2022-11-08T03:28:08.292Z,13.90
2022-11-08T03:30:37.075Z,16.57
2022-11-08T03:33:04.039Z,15.13
2022-11-08T03:35:34.454Z,14.27
2022-11-08T03:38:27.044Z,13.97
2022-11-08T03:40:54.650Z,17.47
2022-11-08T03:43:21.492Z,15.83
2022-11-08T03:45:49.244Z,17.13
2022-11-08T03:48:17.085Z,13.97
2022-11-08T03:50:49.369Z,16.83
2022-11-08T03:53:17.542Z,14.13
2022-11-08T03:55:44.768Z,13.47
2022-11-08T03:58:13.054Z,9.27
2022-11-08T04:00:40.043Z,14.17
2022-11-08T04:03:07.934Z,13.10
2022-11-08T04:05:36.261Z,13.37
2022-11-08T04:08:05.565Z,16.17
2022-11-08T04:10:32.408Z,18.63
2022-11-08T04:13:19.501Z,12.77
2022-11-08T04:15:54.201Z,9.93
2022-11-08T04:18:40.732Z,19.80
2022-11-08T04:21:19.745Z,11.27
2022-11-08T04:23:49.215Z,14.70
2022-11-08T04:26:16.278Z,12.10
2022-11-08T04:28:46.723Z,9.30
2022-11-08T04:31:16.433Z,12.30
2022-11-08T04:33:44.274Z,16.20
2022-11-08T04:36:16.832Z,8.00
2022-11-08T04:38:45.564Z,14.73
2022-11-08T04:41:14.912Z,9.60
2022-11-08T04:43:42.563Z,15.93
2022-11-08T04:46:14.139Z,15.07
2022-11-08T04:48:43.840Z,13.83
2022-11-08T04:51:19.355Z,16.57
2022-11-08T04:53:46.327Z,19.23
2022-11-08T04:56:18.174Z,13.80
2022-11-08T04:58:48.354Z,15.87
2022-11-08T05:01:18.282Z,11.00
2022-11-08T05:04:11.458Z,10.33
2022-11-08T05:06:38.210Z,10.60
2022-11-08T05:09:05.996Z,12.10
2022-11-08T05:11:33.788Z,8.17
2022-11-08T05:20:39.697Z,11.67
2022-11-08T05:23:25.080Z,8.90
2022-11-08T05:25:57.667Z,13.27
2022-11-08T05:28:24.509Z,11.97
2022-11-08T05:31:21.851Z,16.97
2022-11-08T05:33:54.948Z,17.67
2022-11-08T05:36:22.651Z,13.53
2022-11-08T05:38:53.470Z,8.23
2022-11-08T05:41:46.040Z,11.07
2022-11-08T05:44:13.212Z,8.17
2022-11-08T05:46:53.026Z,13.17
2022-11-08T05:57:46.466Z,11.27
2022-11-08T06:00:16.204Z,7.77
2022-11-08T06:02:43.002Z,17.40
2022-11-08T06:05:12.479Z,10.00
2022-11-08T06:07:40.207Z,13.93
2022-11-08T06:10:07.561Z,11.03
2022-11-08T06:12:38.328Z,13.57
2022-11-08T06:15:10.424Z,8.73
2022-11-08T06:17:37.313Z,12.43
2022-11-08T06:20:05.633Z,13.30
2022-11-08T06:22:35.548Z,8.17
2022-11-08T06:25:06.346Z,14.77
2022-11-08T06:27:33.701Z,12.87
2022-11-08T06:30:01.123Z,16.53
2022-11-08T06:32:28.300Z,13.23
2022-11-08T06:34:55.604Z,8.27
2022-11-08T06:37:22.568Z,14.40
2022-11-08T06:39:50.184Z,10.57
2022-11-08T06:42:17.177Z,10.47
2022-11-08T06:44:44.254Z,14.77
2022-11-08T06:47:12.041Z,8.37
2022-11-08T06:49:39.226Z,14.10
2022-11-08T06:52:06.540Z,12.40
2022-11-08T06:54:38.760Z,14.53
2022-11-08T06:57:06.748Z,11.40
2022-11-08T06:59:33.901Z,7.87
2022-11-08T07:02:01.062Z,8.47
2022-11-08T07:04:28.062Z,12.90
2022-11-08T07:06:56.117Z,7.67
2022-11-08T07:09:23.415Z,16.03
2022-11-08T07:11:50.272Z,11.50
2022-11-08T07:14:17.844Z,9.40
2022-11-08T07:17:10.973Z,16.80
2022-11-08T07:19:37.878Z,10.57
2022-11-08T07:22:04.574Z,10.97
2022-11-08T07:24:31.594Z,13.43
2022-11-08T07:26:58.923Z,9.33
2022-11-08T07:29:26.011Z,9.20
2022-11-08T07:31:53.207Z,6.40
2022-11-08T07:34:20.833Z,5.63
2022-11-08T07:36:47.781Z,10.47
2022-11-08T07:39:14.989Z,8.53
2022-11-08T07:41:42.408Z,8.20
2022-11-08T07:44:09.582Z,11.23
2022-11-08T07:46:36.623Z,9.40
2022-11-08T07:49:03.758Z,9.00
2022-11-08T07:51:30.521Z,7.63
2022-11-08T07:54:02.616Z,9.70
2022-11-08T07:56:30.808Z,7.93
2022-11-08T07:59:00.703Z,8.17
2022-11-08T08:01:27.583Z,11.47
2022-11-08T08:03:54.689Z,13.37
2022-11-08T08:06:22.277Z,16.43
2022-11-08T08:08:49.550Z,11.30
2022-11-08T08:11:20.628Z,10.17
2022-11-08T08:13:47.540Z,9.13
2022-11-08T08:16:14.959Z,9.23
2022-11-08T08:18:43.655Z,9.10
2022-11-08T08:21:10.369Z,9.87
2022-11-08T08:23:37.866Z,9.23
2022-11-08T08:26:05.167Z,6.37
2022-11-08T08:28:36.898Z,8.00
2022-11-08T08:31:06.864Z,10.00
2022-11-08T08:33:33.865Z,8.10
2022-11-08T08:36:03.493Z,6.13
2022-11-08T08:38:32.564Z,9.33
2022-11-08T08:41:01.846Z,5.77
2022-11-08T08:43:31.147Z,12.60
2022-11-08T08:46:04.572Z,11.37
2022-11-08T08:48:32.559Z,7.60
2022-11-08T08:51:00.645Z,11.73
2022-11-08T08:53:28.338Z,6.77
2022-11-08T08:55:55.510Z,12.23
2022-11-08T08:58:23.473Z,7.33
2022-11-08T09:04:02.895Z,7.00
2022-11-08T09:06:30.058Z,7.10
2022-11-08T09:08:57.600Z,8.23
2022-11-08T09:11:25.005Z,9.70
2022-11-08T09:13:52.446Z,8.33
2022-11-08T09:16:19.995Z,11.17
2022-11-08T09:18:47.762Z,8.63
2022-11-08T09:21:15.819Z,7.97
2022-11-08T09:23:44.410Z,6.93
2022-11-08T09:26:16.584Z,14.77
2022-11-08T09:28:44.128Z,4.73
2022-11-08T09:31:13.433Z,8.10
2022-11-08T09:33:42.257Z,9.57
2022-11-08T09:36:14.223Z,7.30
2022-11-08T09:38:42.385Z,7.27
2022-11-08T09:41:37.189Z,6.30
2022-11-08T09:44:13.372Z,4.50
2022-11-08T09:46:55.972Z,7.30
2022-11-08T09:49:28.779Z,5.73
2022-11-08T09:51:57.256Z,5.87
2022-11-08T09:54:30.336Z,5.77
2022-11-08T09:56:59.036Z,5.27
2022-11-08T09:59:40.074Z,4.37
2022-11-08T10:02:23.558Z,9.30
2022-11-08T10:04:57.854Z,3.60
2022-11-08T10:07:47.303Z,3.43
2022-11-08T10:10:32.133Z,4.10
2022-11-08T10:13:34.049Z,3.90
2022-11-08T10:16:06.946Z,8.07
2022-11-08T10:19:12.072Z,9.10
2022-11-08T10:21:50.949Z,5.37
2022-11-08T10:24:30.838Z,8.50
2022-11-08T10:27:00.729Z,6.60
2022-11-08T10:29:37.067Z,7.43
2022-11-08T10:32:25.547Z,6.37
2022-11-08T10:35:17.622Z,6.17
2022-11-08T10:37:45.796Z,6.50
2022-11-08T10:40:13.182Z,5.87
2022-11-08T10:42:51.216Z,7.07
2022-11-08T10:45:19.747Z,5.63
2022-11-08T10:47:47.882Z,4.87
2022-11-08T10:50:19.024Z,7.93
2022-11-08T10:52:55.741Z,3.77
2022-11-08T10:55:26.303Z,7.77
2022-11-08T10:57:54.091Z,6.30
2022-11-08T11:00:22.333Z,7.53
2022-11-08T11:02:55.873Z,5.23
2022-11-08T11:05:31.579Z,4.43
2022-11-08T11:08:16.246Z,8.07
2022-11-08T11:11:23.048Z,4.60
2022-11-08T11:14:21.893Z,4.33
2022-11-08T11:17:07.777Z,2.47
2022-11-08T11:19:35.949Z,5.83
2022-11-08T11:22:07.058Z,4.10
2022-11-08T11:24:37.798Z,2.23
2022-11-08T11:27:29.736Z,7.20
2022-11-08T11:30:30.753Z,6.77
2022-11-08T11:33:18.560Z,5.67
2022-11-08T11:35:50.714Z,8.10
2022-11-08T11:38:43.120Z,8.87
2022-11-08T11:41:19.639Z,4.37
2022-11-08T11:43:47.061Z,4.47
2022-11-08T11:46:14.323Z,5.07
2022-11-08T11:49:02.636Z,9.33
2022-11-08T11:51:31.174Z,5.47
2022-11-08T11:53:59.162Z,2.00
2022-11-08T11:56:41.336Z,7.93
2022-11-08T12:02:37.142Z,3.63
2022-11-08T12:05:05.219Z,6.33
2022-11-08T12:07:36.631Z,3.03
2022-11-08T12:10:37.326Z,4.43
2022-11-08T12:16:35.566Z,4.50
2022-11-08T12:19:35.541Z,5.47
2022-11-08T12:22:18.040Z,8.63
2022-11-08T12:25:14.160Z,4.13
2022-11-08T12:27:57.326Z,1.97
2022-11-08T12:31:11.062Z,2.20
2022-11-08T12:33:44.148Z,7.87
2022-11-08T12:36:17.995Z,6.20
2022-11-08T12:39:01.160Z,4.27
2022-11-08T12:41:47.217Z,4.07
2022-11-08T12:44:24.018Z,4.23
2022-11-08T12:46:54.316Z,7.63
2022-11-08T12:49:33.486Z,4.70
2022-11-08T12:52:31.582Z,4.67
2022-11-08T12:55:03.502Z,1.83
2022-11-08T12:57:32.874Z,5.50
2022-11-08T13:00:31.857Z,8.10
2022-11-08T13:03:07.879Z,4.97
2022-11-08T13:05:46.886Z,2.13
2022-11-08T13:08:35.973Z,4.70
2022-11-08T13:11:08.558Z,4.10
2022-11-08T13:13:49.327Z,4.07
2022-11-08T13:16:24.851Z,2.77
2022-11-08T13:18:54.086Z,3.23
2022-11-08T13:21:31.731Z,2.63
2022-11-08T13:24:09.983Z,2.67
2022-11-08T13:26:50.423Z,3.43
2022-11-08T13:29:18.128Z,1.90
2022-11-08T13:31:55.100Z,3.00
2022-11-08T13:34:27.524Z,3.27
2022-11-08T13:37:07.320Z,3.63
2022-11-08T13:40:04.080Z,3.93
2022-11-08T13:43:14.344Z,3.60
2022-11-08T13:45:41.375Z,3.07
2022-11-08T13:48:22.283Z,5.00
2022-11-08T13:50:56.059Z,5.07
2022-11-08T13:53:23.034Z,4.90
2022-11-08T13:56:24.795Z,3.03
2022-11-08T13:58:52.056Z,4.57
2022-11-08T14:01:19.515Z,4.43
2022-11-08T14:04:33.919Z,3.20
2022-11-08T14:07:23.774Z,2.60
2022-11-08T14:10:16.726Z,1.97
2022-11-08T14:12:47.023Z,4.17
2022-11-08T14:15:30.363Z,2.57
2022-11-08T14:18:02.132Z,3.27
2022-11-08T14:20:42.533Z,3.70
2022-11-08T14:23:15.735Z,7.67
2022-11-08T14:25:46.833Z,6.63
2022-11-08T14:28:29.128Z,7.00
2022-11-08T14:30:57.278Z,1.90
2022-11-08T14:33:27.063Z,4.53
2022-11-08T14:35:56.482Z,2.97
2022-11-08T14:38:24.130Z,4.80
2022-11-08T14:40:58.118Z,5.47
2022-11-08T14:43:27.259Z,5.90
2022-11-08T14:45:54.609Z,4.73
2022-11-08T14:48:27.615Z,3.43
2022-11-08T14:51:00.399Z,7.10
2022-11-08T14:53:33.106Z,5.03
2022-11-08T14:56:21.873Z,2.87
2022-11-08T14:58:51.512Z,4.77
2022-11-08T15:01:24.391Z,6.20
2022-11-08T15:04:20.564Z,4.97
2022-11-08T15:06:52.683Z,3.23
2022-11-08T15:09:20.971Z,2.53
2022-11-08T15:11:54.579Z,4.60
2022-11-08T15:14:24.960Z,3.33
2022-11-08T15:16:58.559Z,3.37
2022-11-08T15:20:03.021Z,3.80
2022-11-08T15:22:36.249Z,27.30
2022-11-08T15:25:21.968Z,9.20
2022-11-08T15:27:51.056Z,13.43
2022-11-08T15:30:30.426Z,5.70
2022-11-08T15:33:00.403Z,3.43
2022-11-08T15:35:34.123Z,4.00
2022-11-08T15:38:29.625Z,3.20
2022-11-08T15:40:59.567Z,8.50
2022-11-08T15:43:37.215Z,3.17
2022-11-08T15:46:06.133Z,5.37
2022-11-08T15:48:33.895Z,2.90
2022-11-08T15:51:01.499Z,3.93
2022-11-08T15:53:29.463Z,8.30
2022-11-08T15:56:02.504Z,3.77
2022-11-08T15:58:36.988Z,5.07
2022-11-08T16:01:20.425Z,4.17
2022-11-08T16:03:48.679Z,3.17
2022-11-08T16:06:19.806Z,3.87
2022-11-08T16:08:47.218Z,2.50
2022-11-08T16:11:23.148Z,4.93
2022-11-08T16:13:51.428Z,3.80
2022-11-08T16:16:19.251Z,4.50
2022-11-08T16:18:46.358Z,4.87
2022-11-08T16:21:19.347Z,7.27
2022-11-08T16:23:46.748Z,5.40
2022-11-08T16:26:17.320Z,5.13
2022-11-08T16:28:45.441Z,4.00
2022-11-08T16:31:39.434Z,4.00
2022-11-08T16:34:06.659Z,14.90
2022-11-08T16:36:33.903Z,13.17
2022-11-08T16:39:03.144Z,33.53
2022-11-08T16:41:30.508Z,8.70
2022-11-08T16:44:03.192Z,4.97
2022-11-08T16:46:30.426Z,3.73
2022-11-08T16:49:24.813Z,6.03
2022-11-08T16:51:51.847Z,5.50
2022-11-08T16:54:25.046Z,3.37
2022-11-08T16:57:03.371Z,5.03
2022-11-08T17:00:00.383Z,5.33
2022-11-08T17:11:44.357Z,2.67
2022-11-08T17:14:13.428Z,3.20
2022-11-08T17:16:43.441Z,4.40
2022-11-08T17:19:11.818Z,3.47
2022-11-08T17:21:45.058Z,3.20
2022-11-08T17:24:21.161Z,6.70
2022-11-08T17:26:49.504Z,3.67
2022-11-08T17:29:20.711Z,5.10
2022-11-08T17:31:48.691Z,3.87
2022-11-08T17:34:16.368Z,5.17
2022-11-08T17:36:44.228Z,4.47
2022-11-08T17:39:14.215Z,2.87
2022-11-08T17:41:41.724Z,3.23
2022-11-08T17:44:09.697Z,2.10
2022-11-08T17:46:37.415Z,1.97
2022-11-08T17:49:04.963Z,5.90
2022-11-08T17:51:32.628Z,2.93
2022-11-08T17:54:00.776Z,1.43
2022-11-08T17:56:28.866Z,3.60
2022-11-08T17:58:58.008Z,2.03
2022-11-08T18:01:30.855Z,3.23
2022-11-08T18:04:04.739Z,3.17
2022-11-08T18:06:32.853Z,4.83
2022-11-08T18:09:01.228Z,3.50
2022-11-08T18:11:29.067Z,4.70
2022-11-08T18:13:57.092Z,3.83
2022-11-08T18:16:24.946Z,3.03
2022-11-08T18:18:53.853Z,2.80
2022-11-08T18:21:21.694Z,4.60
2022-11-08T18:23:49.716Z,2.23
2022-11-08T18:35:18.297Z,2.90
2022-11-08T18:37:45.926Z,3.83
2022-11-08T18:40:14.347Z,2.57
2022-11-08T18:42:42.585Z,4.90
2022-11-08T18:45:10.906Z,2.43
2022-11-08T18:47:38.807Z,2.73
2022-11-08T18:50:07.920Z,1.77
2022-11-08T18:52:36.886Z,3.70
2022-11-08T18:55:08.030Z,3.33
2022-11-08T18:57:35.728Z,3.17
2022-11-08T19:00:04.599Z,2.13
2022-11-08T19:02:32.358Z,2.87
2022-11-08T19:05:00.506Z,3.03
2022-11-08T19:07:28.874Z,2.30
2022-11-08T19:09:57.061Z,8.33
2022-11-08T19:12:24.788Z,3.80
2022-11-08T19:14:54.066Z,5.63
2022-11-08T19:17:23.165Z,3.50
2022-11-08T19:19:51.129Z,2.90
2022-11-08T19:22:19.043Z,4.70
2022-11-08T19:24:46.734Z,2.27
2022-11-08T19:27:14.345Z,1.97
2022-11-08T19:29:41.837Z,4.63
2022-11-08T19:32:09.273Z,4.53
2022-11-08T19:34:37.670Z,4.07
2022-11-08T19:37:05.727Z,4.17
2022-11-08T19:39:35.296Z,2.67
2022-11-08T19:42:02.949Z,3.03
2022-11-08T19:44:32.019Z,5.03
2022-11-08T19:49:55.457Z,5.67
2022-11-08T19:52:25.520Z,3.43
2022-11-08T19:55:21.517Z,1.93
2022-11-08T19:57:49.517Z,7.47
2022-11-08T20:00:18.306Z,3.93
2022-11-08T20:02:46.556Z,4.90
2022-11-08T20:05:13.527Z,5.00
2022-11-08T20:07:41.242Z,4.50
2022-11-08T20:10:12.641Z,4.97
2022-11-08T20:12:41.253Z,4.17
2022-11-08T20:15:09.759Z,5.43
2022-11-08T20:17:37.538Z,3.83
2022-11-08T20:20:05.898Z,2.47
2022-11-08T20:22:35.311Z,5.00
2022-11-08T20:25:10.167Z,4.77
2022-11-08T20:28:02.659Z,2.90
2022-11-08T20:30:30.770Z,2.57
2022-11-08T20:32:58.600Z,4.23
2022-11-08T20:35:28.002Z,4.60
2022-11-08T20:37:58.852Z,5.17
2022-11-08T20:40:26.767Z,5.13
2022-11-08T20:42:54.873Z,4.57
2022-11-08T20:45:28.948Z,4.83
2022-11-08T20:48:02.641Z,3.93
2022-11-08T20:50:31.308Z,2.10
2022-11-08T20:52:59.559Z,4.93
2022-11-08T20:55:28.210Z,4.03
2022-11-08T20:57:56.861Z,3.10
2022-11-08T21:00:58.357Z,2.37
2022-11-08T21:03:28.571Z,2.70
2022-11-08T21:06:03.029Z,4.73
2022-11-08T21:11:20.578Z,1.63
2022-11-08T21:13:49.291Z,2.40
2022-11-08T21:16:29.722Z,3.13
2022-11-08T21:18:58.775Z,6.00
2022-11-08T21:21:33.214Z,1.60
2022-11-08T21:24:01.059Z,3.70
2022-11-08T21:26:29.037Z,2.00
2022-11-08T21:28:58.660Z,2.67
2022-11-08T21:31:26.582Z,4.20
2022-11-08T21:33:57.366Z,1.93
2022-11-08T21:36:27.202Z,2.70
2022-11-08T21:38:55.051Z,2.33
2022-11-08T21:41:23.604Z,4.43
2022-11-08T21:43:51.644Z,2.07
2022-11-08T21:46:22.602Z,4.70
2022-11-08T21:48:55.868Z,3.83
2022-11-08T21:51:23.946Z,2.10
2022-11-08T21:53:57.526Z,5.60
2022-11-08T21:56:34.507Z,4.17
2022-11-08T21:59:03.674Z,2.17
2022-11-08T22:01:32.434Z,2.67
2022-11-08T22:04:00.790Z,8.83
2022-11-08T22:06:29.408Z,4.13
2022-11-08T22:08:57.301Z,1.70
2022-11-08T22:11:29.248Z,4.40
2022-11-08T22:14:22.528Z,3.27
2022-11-08T22:16:51.995Z,2.70
2022-11-08T22:19:19.589Z,5.83
2022-11-08T22:21:47.865Z,4.37
2022-11-08T22:24:22.679Z,2.93
2022-11-08T22:26:53.051Z,3.73
2022-11-08T22:29:21.108Z,2.87
2022-11-08T22:31:49.139Z,2.47
2022-11-08T22:34:17.419Z,2.90
2022-11-08T22:36:46.078Z,1.57
2022-11-08T22:39:40.291Z,3.63
2022-11-08T22:42:08.513Z,5.37
2022-11-08T22:44:36.561Z,7.23
2022-11-08T22:47:04.643Z,3.07
2022-11-08T22:49:32.567Z,5.33
2022-11-08T22:52:00.722Z,2.70
2022-11-08T22:54:28.529Z,3.57
2022-11-08T22:56:57.212Z,5.97
2022-11-08T22:59:25.157Z,2.70
2022-11-08T23:01:53.402Z,3.47
2022-11-08T23:04:20.823Z,6.23
2022-11-08T23:06:49.353Z,3.00
2022-11-08T23:09:24.349Z,4.83
2022-11-08T23:12:11.088Z,4.10
2022-11-08T23:14:57.455Z,4.50
2022-11-08T23:17:26.794Z,4.07
2022-11-08T23:20:13.838Z,3.37
2022-11-08T23:23:00.675Z,6.10
2022-11-08T23:25:29.114Z,3.17
2022-11-08T23:28:16.755Z,2.20
2022-11-08T23:31:03.488Z,2.17
2022-11-08T23:33:31.881Z,2.90
2022-11-08T23:36:11.588Z,3.30
2022-11-08T23:38:39.941Z,4.17
2022-11-08T23:41:26.322Z,2.67
2022-11-08T23:44:13.329Z,2.90
2022-11-08T23:46:41.466Z,2.83
2022-11-08T23:49:09.490Z,3.27
2022-11-08T23:51:37.468Z,6.40
2022-11-08T23:54:05.364Z,5.10
2022-11-08T23:56:33.232Z,4.50
2022-11-08T23:59:02.132Z,6.53
